Time,TemperatureF,DewpointF,PressureIn,WindDirection,WindDirectionDegrees,WindSpeedMPH,WindSpeedGustMPH,Humidity,HourlyPrecipIn,Conditions,Clouds,dailyrainin,SolarRadiationWatts/m^2,SoftwareType,DateUTC
2013-08-16 00:02:00,62.4,62.4,29.81,SW,217,6.6,-999.0,100,0.00,,,0.00,0.18,,2013-08-16 07:02:00,
2013-08-16 00:07:00,62.5,62.5,29.81,South,182,5.2,-999.0,100,0.00,,,0.00,0.00,,2013-08-16 07:07:00,
2013-08-16 00:12:00,62.3,62.3,29.81,SW,227,6.6,-999.0,100,0.00,,,0.00,0.98,,2013-08-16 07:12:00,
2013-08-16 00:17:00,62.3,62.3,29.81,WSW,244,9.3,-999.0,100,0.00,,,0.00,0.06,,2013-08-16 07:17:00,
2013-08-16 00:22:00,62.3,62.3,29.81,WSW,241,7.4,-999.0,100,0.00,,,0.00,0.73,,2013-08-16 07:22:00,
2013-08-16 00:27:00,62.4,62.4,29.80,SSW,198,8.0,-999.0,100,0.00,,,0.00,0.85,,2013-08-16 07:27:00,
2013-08-16 00:32:00,62.4,62.4,29.81,SW,232,5.9,-999.0,100,0.00,,,0.00,0.00,,2013-08-16 07:32:00,
2013-08-16 00:37:00,62.4,62.4,29.80,SSW,211,3.7,-999.0,100,0.00,,,0.00,0.00,,2013-08-16 07:37:00,
2013-08-16 00:42:00,62.3,62.3,29.81,SSW,208,5.6,-999.0,100,0.00,,,0.00,0.92,,2013-08-16 07:42:00,
2013-08-16 00:47:00,62.4,62.4,29.81,WSW,243,5.1,-999.0,100,0.00,,,0.00,0.00,,2013-08-16 07:47:00,
2013-08-16 00:52:00,62.3,62.3,29.81,SSE,157,2.7,-999.0,100,0.00,,,0.00,0.00,,2013-08-16 07:52:00,
2013-08-16 00:57:00,62.4,62.4,29.80,WSW,253,3.9,-999.0,100,0.00,,,0.00,1.10,,2013-08-16 07:57:00,
2013-08-16 01:02:00,62.4,62.4,29.81,South,191,1.6,-999.0,100,0.00,,,0.00,0.98,,2013-08-16 08:02:00,
2013-08-16 01:07:00,62.5,62.5,29.81,SW,219,0.0,-999.0,100,0.00,,,0.00,0.24,,2013-08-16 08:07:00,
2013-08-16 01:12:00,62.5,62.5,29.80,West,267,1.1,-999.0,100,0.00,,,0.00,0.00,,2013-08-16 08:12:00,
2013-08-16 01:17:00,62.3,62.3,29.81,SW,236,5.8,-999.0,100,0.00,,,0.00,0.98,,2013-08-16 08:17:00,
2013-08-16 01:22:00,62.3,62.3,29.80,SW,227,3.2,-999.0,100,0.00,,,0.00,0.00,,2013-08-16 08:22:00,
2013-08-16 01:27:00,62.5,62.5,29.80,SW,221,1.8,-999.0,100,0.00,,,0.00,0.00,,2013-08-16 08:27:00,
2013-08-16 01:32:00,62.5,62.5,29.80,WSW,240,2.7,-999.0,100,0.00,,,0.00,0.00,,2013-08-16 08:32:00,
2013-08-16 01:37:00,62.4,62.4,29.80,SSW,212,10.0,-999.0,100,0.00,,,0.00,0.00,,2013-08-16 08:37:00,
2013-08-16 01:42:00,62.5,62.5,29.80,WSW,247,6.4,-999.0,100,0.00,,,0.00,1.22,,2013-08-16 08:42:00,
2013-08-16 01:47:00,62.5,62.5,29.80,SW,216,3.5,-999.0,100,0.00,,,0.00,0.00,,2013-08-16 08:47:00,
2013-08-16 01:52:00,62.6,62.6,29.80,SW,225,3.9,-999.0,100,0.00,,,0.00,0.00,,2013-08-16 08:52:00,
2013-08-16 01:57:00,62.5,62.5,29.79,South,189,4.2,-999.0,100,0.00,,,0.00,0.73,,2013-08-16 08:57:00,
2013-08-16 02:02:00,62.5,62.5,29.80,South,187,3.5,-999.0,100,0.00,,,0.00,0.49,,2013-08-16 09:02:00,
2013-08-16 02:07:00,62.4,62.4,29.80,SW,235,3.4,-999.0,100,0.00,,,0.00,0.00,,2013-08-16 09:07:00,
2013-08-16 02:12:00,62.6,62.6,29.79,SW,227,0.0,-999.0,100,0.00,,,0.00,0.00,,2013-08-16 09:12:00,
2013-08-16 02:17:00,62.5,62.5,29.80,SSW,209,1.0,-999.0,100,0.00,,,0.00,0.00,,2013-08-16 09:17:00,
2013-08-16 02:22:00,62.3,62.3,29.80,SSW,202,4.7,-999.0,100,0.00,,,0.00,0.49,,2013-08-16 09:22:00,
2013-08-16 02:27:00,62.3,62.3,29.80,SSW,200,4.5,-999.0,100,0.00,,,0.00,0.00,,2013-08-16 09:27:00,
2013-08-16 02:32:00,62.2,62.2,29.80,SSW,213,4.2,-999.0,100,0.00,,,0.00,0.31,,2013-08-16 09:32:00,
2013-08-16 02:37:00,62.4,62.4,29.80,South,183,3.7,-999.0,100,0.00,,,0.00,0.06,,2013-08-16 09:37:00,
2013-08-16 02:42:00,62.3,62.3,29.80,SW,223,0.0,-999.0,100,0.00,,,0.00,0.67,,2013-08-16 09:42:00,
2013-08-16 02:47:00,62.1,62.1,29.80,SW,220,4.7,-999.0,100,0.00,,,0.00,0.00,,2013-08-16 09:47:00,
2013-08-16 02:52:00,62.2,62.2,29.79,SE,142,3.0,-999.0,100,0.00,,,0.00,0.37,,2013-08-16 09:52:00,
2013-08-16 02:57:00,62.2,62.2,29.80,SSW,193,5.9,-999.0,100,0.00,,,0.00,0.00,,2013-08-16 09:57:00,
2013-08-16 03:02:00,62.3,62.3,29.80,SE,135,0.0,-999.0,100,0.00,,,0.00,0.00,,2013-08-16 10:02:00,
2013-08-16 03:07:00,62.3,62.3,29.79,South,188,5.4,-999.0,100,0.00,,,0.00,0.00,,2013-08-16 10:07:00,
2013-08-16 03:12:00,62.1,62.1,29.80,South,191,3.5,-999.0,100,0.00,,,0.00,0.24,,2013-08-16 10:12:00,
2013-08-16 03:17:00,62.3,62.3,29.80,SSE,155,2.7,-999.0,100,0.00,,,0.00,0.61,,2013-08-16 10:17:00,
2013-08-16 03:22:00,62.3,62.3,29.79,South,170,0.0,-999.0,100,0.00,,,0.00,0.00,,2013-08-16 10:22:00,
2013-08-16 03:27:00,62.3,62.3,29.80,South,181,1.1,-999.0,100,0.00,,,0.00,0.00,,2013-08-16 10:27:00,
2013-08-16 03:32:00,62.2,62.2,29.80,South,182,2.8,-999.0,100,0.00,,,0.00,0.00,,2013-08-16 10:32:00,
2013-08-16 03:37:00,62.2,62.2,29.80,South,174,5.1,-999.0,100,0.00,,,0.00,0.49,,2013-08-16 10:37:00,
2013-08-16 03:42:00,62.5,62.5,29.80,West,269,1.5,-999.0,100,0.00,,,0.00,0.67,,2013-08-16 10:42:00,
2013-08-16 03:47:00,62.0,62.0,29.79,WSW,239,2.8,-999.0,100,0.00,,,0.00,0.43,,2013-08-16 10:47:00,
2013-08-16 03:52:00,62.3,62.3,29.80,SSW,195,0.0,-999.0,100,0.00,,,0.00,0.37,,2013-08-16 10:52:00,
2013-08-16 03:57:00,62.1,62.1,29.80,SSE,167,2.5,-999.0,100,0.00,,,0.00,0.06,,2013-08-16 10:57:00,
2013-08-16 04:02:00,61.9,61.9,29.80,SW,218,2.7,-999.0,100,0.00,,,0.00,0.00,,2013-08-16 11:02:00,
2013-08-16 04:07:00,62.1,62.1,29.80,South,178,1.6,-999.0,100,0.00,,,0.00,0.73,,2013-08-16 11:07:00,
2013-08-16 04:12:00,62.3,62.3,29.80,SW,223,1.5,-999.0,100,0.00,,,0.00,0.00,,2013-08-16 11:12:00,
2013-08-16 04:17:00,62.0,62.0,29.79,WSW,241,3.9,-999.0,100,0.00,,,0.00,0.00,,2013-08-16 11:17:00,
2013-08-16 04:22:00,62.2,62.2,29.79,South,183,0.0,-999.0,100,0.00,,,0.00,0.31,,2013-08-16 11:22:00,
2013-08-16 04:27:00,62.2,62.2,29.80,SSW,199,2.7,-999.0,100,0.00,,,0.00,0.98,,2013-08-16 11:27:00,
2013-08-16 04:32:00,62.0,62.0,29.79,SW,218,3.2,-999.0,100,0.00,,,0.00,0.00,,2013-08-16 11:32:00,
2013-08-16 04:37:00,62.0,62.0,29.79,South,180,3.0,-999.0,100,0.00,,,0.00,0.73,,2013-08-16 11:37:00,
2013-08-16 04:42:00,62.3,62.3,29.80,SW,226,4.7,-999.0,100,0.00,,,0.00,0.00,,2013-08-16 11:42:00,
2013-08-16 04:47:00,62.2,62.2,29.80,SW,224,3.4,-999.0,100,0.00,,,0.00,0.00,,2013-08-16 11:47:00,
2013-08-16 04:52:00,62.2,62.2,29.81,SSW,211,3.2,-999.0,100,0.00,,,0.00,0.00,,2013-08-16 11:52:00,
2013-08-16 05:02:00,62.3,62.3,29.80,SW,236,3.7,-999.0,100,0.00,,,0.00,0.00,,2013-08-16 12:02:00,
2013-08-16 05:07:00,62.1,62.1,29.81,SSW,192,3.4,-999.0,100,0.00,,,0.00,0.06,,2013-08-16 12:07:00,
2013-08-16 05:12:00,62.2,62.2,29.80,SW,219,4.4,-999.0,100,0.00,,,0.00,0.00,,2013-08-16 12:12:00,
2013-08-16 05:17:00,62.2,62.2,29.80,SSW,211,4.0,-999.0,100,0.00,,,0.00,0.37,,2013-08-16 12:17:00,
2013-08-16 05:22:00,62.3,62.3,29.80,WNW,301,2.8,-999.0,100,0.00,,,0.00,0.06,,2013-08-16 12:22:00,
2013-08-16 05:27:00,62.0,62.0,29.80,SW,215,3.4,-999.0,100,0.00,,,0.00,0.49,,2013-08-16 12:27:00,
2013-08-16 05:32:00,62.0,62.0,29.81,South,169,4.2,-999.0,100,0.00,,,0.00,0.00,,2013-08-16 12:32:00,
2013-08-16 05:37:00,61.9,61.9,29.80,SSW,193,6.6,-999.0,100,0.00,,,0.00,0.00,,2013-08-16 12:37:00,
2013-08-16 05:42:00,62.0,62.0,29.80,SSW,206,2.3,-999.0,100,0.00,,,0.00,0.73,,2013-08-16 12:42:00,
2013-08-16 05:47:00,61.9,61.9,29.81,SSW,212,5.9,-999.0,100,0.00,,,0.00,0.00,,2013-08-16 12:47:00,
2013-08-16 05:57:00,61.8,61.8,29.80,SW,227,6.3,-999.0,100,0.00,,,0.00,1.10,,2013-08-16 12:57:00,
2013-08-16 06:02:00,62.0,62.0,29.81,SSW,203,3.4,-999.0,100,0.00,,,0.00,0.00,,2013-08-16 13:02:00,
2013-08-16 06:07:00,62.0,62.0,29.80,SW,234,3.9,-999.0,100,0.00,,,0.00,0.98,,2013-08-16 13:07:00,
2013-08-16 06:12:00,61.9,61.9,29.80,SW,232,6.3,-999.0,100,0.00,,,0.00,0.49,,2013-08-16 13:12:00,
2013-08-16 06:17:00,62.1,62.1,29.81,WSW,247,2.8,-999.0,100,0.00,,,0.00,0.31,,2013-08-16 13:17:00,
2013-08-16 06:22:00,62.0,62.0,29.81,SW,230,4.2,-999.0,100,0.00,,,0.00,1.47,,2013-08-16 13:22:00,
2013-08-16 06:27:00,62.0,62.0,29.81,South,173,4.0,-999.0,100,0.00,,,0.00,0.00,,2013-08-16 13:27:00,
2013-08-16 06:32:00,62.1,62.1,29.81,SSW,194,2.5,-999.0,100,0.00,,,0.00,3.42,,2013-08-16 13:32:00,
2013-08-16 06:37:00,62.1,62.1,29.81,SSW,206,4.4,-999.0,100,0.00,,,0.00,6.65,,2013-08-16 13:37:00,
2013-08-16 06:42:00,62.4,62.4,29.81,West,278,2.5,-999.0,100,0.00,,,0.00,10.68,,2013-08-16 13:42:00,
2013-08-16 06:47:00,62.2,62.2,29.81,SSW,193,4.5,-999.0,100,0.00,,,0.00,12.39,,2013-08-16 13:47:00,
2013-08-16 06:52:00,62.3,62.3,29.81,SSW,198,6.9,-999.0,100,0.00,,,0.00,19.54,,2013-08-16 13:52:00,
2013-08-16 06:57:00,62.3,62.3,29.82,SW,215,1.3,-999.0,100,0.00,,,0.00,21.79,,2013-08-16 13:57:00,
2013-08-16 07:02:00,62.3,62.3,29.82,SSW,208,6.6,-999.0,100,0.00,,,0.00,30.04,,2013-08-16 14:02:00,
2013-08-16 07:12:00,62.6,62.6,29.83,SSW,207,2.7,-999.0,100,0.00,,,0.00,41.33,,2013-08-16 14:12:00,
2013-08-16 07:17:00,62.5,62.5,29.83,South,181,1.0,-999.0,100,0.00,,,0.00,46.95,,2013-08-16 14:17:00,
2013-08-16 07:22:00,62.5,62.5,29.82,SW,216,2.0,-999.0,100,0.00,,,0.00,43.22,,2013-08-16 14:22:00,
2013-08-16 07:27:00,62.3,62.3,29.82,South,177,5.1,-999.0,100,0.00,,,0.00,54.76,,2013-08-16 14:27:00,
2013-08-16 07:32:00,62.7,62.7,29.82,WSW,250,2.5,-999.0,100,0.00,,,0.00,53.24,,2013-08-16 14:32:00,
2013-08-16 07:37:00,62.6,62.6,29.83,South,181,2.5,-999.0,100,0.00,,,0.00,67.89,,2013-08-16 14:37:00,
2013-08-16 07:42:00,62.7,62.7,29.82,South,171,1.0,-999.0,100,0.00,,,0.00,66.61,,2013-08-16 14:42:00,
2013-08-16 07:47:00,62.6,62.6,29.82,WSW,237,3.2,-999.0,100,0.00,,,0.00,71.25,,2013-08-16 14:47:00,
2013-08-16 07:52:00,62.4,62.4,29.83,South,189,6.1,-999.0,100,0.00,,,0.00,73.26,,2013-08-16 14:52:00,
2013-08-16 07:57:00,62.5,62.5,29.82,South,176,5.1,-999.0,100,0.00,,,0.00,76.43,,2013-08-16 14:57:00,
2013-08-16 08:02:00,62.7,62.7,29.82,SSW,210,3.4,-999.0,100,0.00,,,0.00,69.90,,2013-08-16 15:02:00,
2013-08-16 08:07:00,62.9,62.9,29.83,SW,221,2.2,-999.0,100,0.00,,,0.00,78.82,,2013-08-16 15:07:00,
2013-08-16 08:12:00,62.7,62.7,29.83,SW,218,1.8,-999.0,100,0.00,,,0.00,78.21,,2013-08-16 15:12:00,
2013-08-16 08:17:00,62.7,62.7,29.83,SSE,166,5.8,-999.0,100,0.00,,,0.00,79.12,,2013-08-16 15:17:00,
2013-08-16 08:22:00,63.0,63.0,29.83,SSE,164,4.4,-999.0,100,0.00,,,0.00,78.39,,2013-08-16 15:22:00,
2013-08-16 08:27:00,63.0,63.0,29.83,South,180,0.0,-999.0,100,0.00,,,0.00,94.20,,2013-08-16 15:27:00,
2013-08-16 08:32:00,62.7,62.7,29.83,South,171,3.2,-999.0,100,0.00,,,0.00,102.08,,2013-08-16 15:32:00,
2013-08-16 08:37:00,62.8,62.8,29.83,SSE,155,4.9,-999.0,100,0.00,,,0.00,127.53,,2013-08-16 15:37:00,
2013-08-16 08:42:00,63.0,63.0,29.83,South,183,2.0,-999.0,100,0.00,,,0.00,134.07,,2013-08-16 15:42:00,
2013-08-16 08:47:00,62.9,62.9,29.83,SSE,168,2.7,-999.0,100,0.00,,,0.00,141.15,,2013-08-16 15:47:00,
2013-08-16 08:52:00,63.0,63.0,29.83,SSW,196,2.7,-999.0,100,0.00,,,0.00,155.01,,2013-08-16 15:52:00,
2013-08-16 08:57:00,62.7,62.7,29.83,SSW,202,7.1,-999.0,100,0.00,,,0.00,154.82,,2013-08-16 15:57:00,
2013-08-16 09:02:00,63.0,63.0,29.83,SSW,194,5.2,-999.0,100,0.00,,,0.00,162.64,,2013-08-16 16:02:00,
2013-08-16 09:07:00,63.2,63.2,29.83,SW,222,4.4,-999.0,100,0.00,,,0.00,183.88,,2013-08-16 16:07:00,
2013-08-16 09:12:00,62.6,62.6,29.83,South,188,5.9,-999.0,100,0.00,,,0.00,134.80,,2013-08-16 16:12:00,
2013-08-16 09:17:00,62.7,62.7,29.84,SW,225,3.0,-999.0,100,0.00,,,0.00,202.26,,2013-08-16 16:17:00,
2013-08-16 09:22:00,62.8,62.8,29.83,South,185,5.1,-999.0,100,0.00,,,0.00,198.05,,2013-08-16 16:22:00,
2013-08-16 09:27:00,63.3,63.3,29.84,NNW,329,4.0,-999.0,100,0.00,,,0.00,204.40,,2013-08-16 16:27:00,
2013-08-16 09:32:00,62.8,62.8,29.84,WSW,248,8.3,-999.0,100,0.00,,,0.00,216.36,,2013-08-16 16:32:00,
2013-08-16 09:37:00,63.1,63.1,29.84,SSW,201,1.0,-999.0,100,0.00,,,0.00,189.01,,2013-08-16 16:37:00,
2013-08-16 09:42:00,62.8,62.8,29.84,SW,232,7.1,-999.0,100,0.00,,,0.00,204.21,,2013-08-16 16:42:00,
2013-08-16 09:47:00,63.0,63.0,29.83,SW,214,5.1,-999.0,100,0.00,,,0.00,196.09,,2013-08-16 16:47:00,
2013-08-16 09:52:00,62.8,62.8,29.84,WSW,237,5.6,-999.0,100,0.00,,,0.00,185.90,,2013-08-16 16:52:00,
2013-08-16 09:57:00,64.0,64.0,29.84,WNW,296,3.9,-999.0,100,0.00,,,0.00,227.84,,2013-08-16 16:57:00,
2013-08-16 10:02:00,63.7,63.7,29.83,WNW,292,0.0,-999.0,100,0.00,,,0.00,264.41,,2013-08-16 17:02:00,
2013-08-16 10:07:00,62.8,62.8,29.83,SSW,208,7.8,-999.0,100,0.00,,,0.00,269.84,,2013-08-16 17:07:00,
2013-08-16 10:12:00,62.9,62.9,29.84,WSW,251,5.4,-999.0,100,0.00,,,0.00,340.17,,2013-08-16 17:12:00,
2013-08-16 10:17:00,63.2,63.2,29.84,WSW,244,1.6,-999.0,100,0.00,,,0.00,319.72,,2013-08-16 17:17:00,
2013-08-16 10:22:00,64.3,64.3,29.84,SSW,196,1.3,-999.0,100,0.00,,,0.00,326.19,,2013-08-16 17:22:00,
2013-08-16 10:27:00,63.4,63.0,29.84,SSE,161,5.9,-999.0,99,0.00,,,0.00,346.46,,2013-08-16 17:27:00,
2013-08-16 10:32:00,65.0,64.7,29.85,SW,214,5.2,-999.0,99,0.00,,,0.00,381.50,,2013-08-16 17:32:00,
2013-08-16 10:37:00,65.6,64.4,29.84,South,188,2.0,-999.0,96,0.00,,,0.00,535.10,,2013-08-16 17:37:00,
2013-08-16 10:42:00,65.9,64.5,29.84,SSE,161,2.7,-999.0,95,0.00,,,0.00,455.37,,2013-08-16 17:42:00,
2013-08-16 10:47:00,66.5,64.4,29.84,WSW,240,4.5,-999.0,93,0.00,,,0.00,481.75,,2013-08-16 17:47:00,
2013-08-16 10:52:00,65.3,62.4,29.84,South,187,7.6,-999.0,90,0.00,,,0.00,535.17,,2013-08-16 17:52:00,
2013-08-16 10:57:00,66.4,62.7,29.84,SSW,211,5.4,-999.0,88,0.00,,,0.00,385.59,,2013-08-16 17:57:00,
2013-08-16 11:02:00,65.5,61.2,29.85,South,180,6.8,-999.0,86,0.00,,,0.00,667.83,,2013-08-16 18:02:00,
2013-08-16 11:12:00,66.7,59.7,29.85,SW,218,7.6,-999.0,78,0.00,,,0.00,673.69,,2013-08-16 18:12:00,
2013-08-16 11:17:00,65.7,58.3,29.84,WSW,251,8.3,-999.0,77,0.00,,,0.00,540.35,,2013-08-16 18:17:00,
2013-08-16 11:22:00,68.2,61.2,29.83,South,174,1.0,-999.0,78,0.00,,,0.00,699.88,,2013-08-16 18:22:00,
2013-08-16 11:27:00,66.0,57.4,29.84,SSW,210,12.4,-999.0,74,0.00,,,0.00,584.13,,2013-08-16 18:27:00,
2013-08-16 11:32:00,67.9,60.7,29.84,SSW,195,2.3,-999.0,78,0.00,,,0.00,569.90,,2013-08-16 18:32:00,
2013-08-16 11:37:00,68.1,59.6,29.84,SW,234,4.0,-999.0,74,0.00,,,0.00,601.77,,2013-08-16 18:37:00,
2013-08-16 11:42:00,65.7,56.2,29.84,SSW,202,11.6,-999.0,71,0.00,,,0.00,795.36,,2013-08-16 18:42:00,
2013-08-16 11:52:00,68.4,60.4,29.84,South,186,1.6,-999.0,76,0.00,,,0.00,556.04,,2013-08-16 18:52:00,
2013-08-16 11:57:00,66.2,56.8,29.84,SSE,155,10.2,-999.0,72,0.00,,,0.00,739.50,,2013-08-16 18:57:00,
2013-08-16 12:02:00,68.0,59.5,29.83,WSW,244,5.8,-999.0,74,0.00,,,0.00,616.06,,2013-08-16 19:02:00,
2013-08-16 12:07:00,68.4,60.1,29.84,SW,227,2.7,-999.0,75,0.00,,,0.00,615.14,,2013-08-16 19:07:00,
2013-08-16 12:12:00,67.8,58.0,29.84,SW,232,7.6,-999.0,71,0.00,,,0.00,933.64,,2013-08-16 19:12:00,
2013-08-16 12:17:00,68.7,59.0,29.84,SW,227,6.1,-999.0,71,0.00,,,0.00,647.62,,2013-08-16 19:17:00,
2013-08-16 12:22:00,68.0,58.5,29.84,WSW,239,7.3,-999.0,72,0.00,,,0.00,708.00,,2013-08-16 19:22:00,
2013-08-16 12:27:00,67.0,57.7,29.84,SW,229,8.7,-999.0,72,0.00,,,0.00,894.26,,2013-08-16 19:27:00,
2013-08-16 12:32:00,67.8,58.4,29.84,South,175,6.1,-999.0,72,0.00,,,0.00,937.61,,2013-08-16 19:32:00,
2013-08-16 12:37:00,68.6,59.2,29.84,South,189,8.0,-999.0,72,0.00,,,0.00,645.91,,2013-08-16 19:37:00,
2013-08-16 12:42:00,66.9,57.2,29.83,WNW,294,7.8,-999.0,71,0.00,,,0.00,798.29,,2013-08-16 19:42:00,
2013-08-16 12:47:00,67.8,58.1,29.84,SW,227,8.3,-999.0,71,0.00,,,0.00,778.02,,2013-08-16 19:47:00,
2013-08-16 12:52:00,66.3,56.9,29.84,South,181,14.5,-999.0,72,0.00,,,0.00,788.52,,2013-08-16 19:52:00,
2013-08-16 12:57:00,67.3,59.5,29.84,SSW,204,6.6,-999.0,76,0.00,,,0.00,587.36,,2013-08-16 19:57:00,
2013-08-16 13:02:00,66.0,58.1,29.84,SSW,200,11.4,-999.0,76,0.00,,,0.00,783.33,,2013-08-16 20:02:00,
2013-08-16 13:07:00,66.6,58.0,29.84,SW,229,11.1,-999.0,74,0.00,,,0.00,721.67,,2013-08-16 20:07:00,
2013-08-16 13:12:00,66.9,59.2,29.84,WNW,285,8.7,-999.0,76,0.00,,,0.00,740.72,,2013-08-16 20:12:00,
2013-08-16 13:17:00,66.7,58.1,29.83,SW,233,11.7,-999.0,74,0.00,,,0.00,871.49,,2013-08-16 20:17:00,
2013-08-16 13:22:00,66.4,57.9,29.83,SW,234,11.6,-999.0,74,0.00,,,0.00,864.71,,2013-08-16 20:22:00,
2013-08-16 13:27:00,67.6,58.4,29.84,SW,236,8.3,-999.0,72,0.00,,,0.00,622.71,,2013-08-16 20:27:00,
2013-08-16 13:32:00,67.2,57.6,29.83,SW,227,11.1,-999.0,71,0.00,,,0.00,792.43,,2013-08-16 20:32:00,
2013-08-16 13:37:00,67.1,58.5,29.84,SW,219,11.1,-999.0,74,0.00,,,0.00,709.71,,2013-08-16 20:37:00,
2013-08-16 13:42:00,66.4,57.6,29.83,WSW,237,12.9,-999.0,73,0.00,,,0.00,720.02,,2013-08-16 20:42:00,
2013-08-16 13:47:00,68.2,59.3,29.83,West,259,10.2,-999.0,73,0.00,,,0.00,467.70,,2013-08-16 20:47:00,
2013-08-16 13:52:00,66.9,59.5,29.83,SW,220,8.5,-999.0,77,0.00,,,0.00,608.12,,2013-08-16 20:52:00,
2013-08-16 13:57:00,66.9,59.0,29.83,West,280,10.5,-999.0,76,0.00,,,0.00,677.23,,2013-08-16 20:57:00,
2013-08-16 14:02:00,67.8,59.7,29.83,SSW,212,6.9,-999.0,75,0.00,,,0.00,680.04,,2013-08-16 21:02:00,
2013-08-16 14:07:00,66.6,58.6,29.83,SW,226,13.3,-999.0,75,0.00,,,0.00,618.32,,2013-08-16 21:07:00,
2013-08-16 14:12:00,66.5,57.6,29.83,South,181,12.6,-999.0,73,0.00,,,0.00,589.50,,2013-08-16 21:12:00,
2013-08-16 14:17:00,68.3,59.9,29.84,NW,320,5.8,-999.0,74,0.00,,,0.00,793.10,,2013-08-16 21:17:00,
2013-08-16 14:22:00,67.0,59.3,29.83,SW,214,8.8,-999.0,76,0.00,,,0.00,618.07,,2013-08-16 21:22:00,
2013-08-16 14:27:00,67.5,60.5,29.83,South,191,4.0,-999.0,78,0.00,,,0.00,787.55,,2013-08-16 21:27:00,
2013-08-16 14:32:00,67.3,60.0,29.82,SW,224,11.9,-999.0,78,0.00,,,0.00,859.40,,2013-08-16 21:32:00,
2013-08-16 14:37:00,67.2,59.9,29.83,South,189,8.5,-999.0,77,0.00,,,0.00,657.14,,2013-08-16 21:37:00,
2013-08-16 14:42:00,67.5,58.2,29.82,SSW,206,10.7,-999.0,72,0.00,,,0.00,781.99,,2013-08-16 21:42:00,
2013-08-16 14:47:00,67.5,58.4,29.82,WSW,252,11.9,-999.0,73,0.00,,,0.00,789.38,,2013-08-16 21:47:00,
2013-08-16 14:52:00,67.6,59.8,29.82,WSW,250,12.6,-999.0,76,0.00,,,0.00,901.40,,2013-08-16 21:52:00,
2013-08-16 14:57:00,67.9,60.2,29.83,SE,135,11.6,-999.0,76,0.00,,,0.00,629.12,,2013-08-16 21:57:00,
2013-08-16 15:02:00,66.9,59.4,29.83,SSW,200,12.3,-999.0,77,0.00,,,0.00,510.87,,2013-08-16 22:02:00,
2013-08-16 15:12:00,66.8,59.5,29.82,SW,221,12.6,-999.0,77,0.00,,,0.00,580.95,,2013-08-16 22:12:00,
2013-08-16 15:17:00,66.8,60.0,29.82,SW,224,14.8,-999.0,79,0.00,,,0.00,579.73,,2013-08-16 22:17:00,
2013-08-16 15:22:00,66.8,60.0,29.82,SW,224,14.8,-999.0,79,0.00,,,0.00,579.73,,2013-08-16 22:22:00,
2013-08-16 15:27:00,66.7,60.1,29.82,South,188,12.4,-999.0,79,0.00,,,0.00,436.20,,2013-08-16 22:27:00,
2013-08-16 15:32:00,68.0,61.3,29.81,SW,217,6.8,-999.0,79,0.00,,,0.00,628.88,,2013-08-16 22:32:00,
2013-08-16 15:37:00,66.7,59.6,29.81,WSW,245,13.8,-999.0,78,0.00,,,0.00,434.68,,2013-08-16 22:37:00,
2013-08-16 15:42:00,67.7,60.6,29.82,SW,231,9.0,-999.0,78,0.00,,,0.00,522.83,,2013-08-16 22:42:00,
2013-08-16 15:47:00,67.8,60.6,29.82,SSE,148,9.7,-999.0,78,0.00,,,0.00,596.89,,2013-08-16 22:47:00,
2013-08-16 15:52:00,67.6,59.9,29.81,SSW,212,12.3,-999.0,76,0.00,,,0.00,592.61,,2013-08-16 22:52:00,
2013-08-16 15:57:00,67.3,59.5,29.81,SSW,212,13.3,-999.0,76,0.00,,,0.00,261.90,,2013-08-16 22:57:00,
2013-08-16 16:02:00,66.7,59.8,29.81,SW,235,12.9,-999.0,79,0.00,,,0.00,306.29,,2013-08-16 23:02:00,
2013-08-16 16:07:00,67.1,60.9,29.81,West,269,10.4,-999.0,81,0.00,,,0.00,455.01,,2013-08-16 23:07:00,
2013-08-16 16:12:00,67.0,61.0,29.81,South,171,10.4,-999.0,81,0.00,,,0.00,520.94,,2013-08-16 23:12:00,
2013-08-16 16:17:00,67.7,61.9,29.80,SW,230,5.8,-999.0,82,0.00,,,0.00,450.06,,2013-08-16 23:17:00,
2013-08-16 16:22:00,66.3,59.9,29.80,SSW,197,12.8,-999.0,80,0.00,,,0.00,434.07,,2013-08-16 23:22:00,
2013-08-16 16:27:00,67.2,61.2,29.81,West,280,9.8,-999.0,81,0.00,,,0.00,368.13,,2013-08-16 23:27:00,
2013-08-16 16:32:00,67.3,61.0,29.81,WSW,246,10.7,-999.0,80,0.00,,,0.00,344.75,,2013-08-16 23:32:00,
2013-08-16 16:37:00,66.7,60.8,29.80,SSW,210,14.3,-999.0,81,0.00,,,0.00,477.23,,2013-08-16 23:37:00,
2013-08-16 16:42:00,66.9,60.8,29.80,ESE,121,6.6,-999.0,81,0.00,,,0.00,471.12,,2013-08-16 23:42:00,
2013-08-16 16:47:00,66.7,61.1,29.80,WSW,241,9.0,-999.0,82,0.00,,,0.00,382.23,,2013-08-16 23:47:00,
2013-08-16 16:52:00,66.4,61.4,29.80,WSW,243,13.6,-999.0,84,0.00,,,0.00,390.35,,2013-08-16 23:52:00,
2013-08-16 16:57:00,66.1,61.1,29.80,SSE,155,8.8,-999.0,84,0.00,,,0.00,294.44,,2013-08-16 23:57:00,
2013-08-16 17:02:00,65.9,61.4,29.80,South,175,13.1,-999.0,85,0.00,,,0.00,280.65,,2013-08-17 00:02:00,
2013-08-16 17:07:00,65.8,61.7,29.80,WSW,255,8.8,-999.0,86,0.00,,,0.00,210.44,,2013-08-17 00:07:00,
2013-08-16 17:12:00,65.2,61.6,29.80,WSW,256,12.3,-999.0,88,0.00,,,0.00,149.45,,2013-08-17 00:12:00,
2013-08-16 17:17:00,65.3,62.0,29.79,SW,221,11.6,-999.0,89,0.00,,,0.00,183.39,,2013-08-17 00:17:00,
2013-08-16 17:22:00,65.9,62.7,29.80,SW,236,9.5,-999.0,90,0.00,,,0.00,172.83,,2013-08-17 00:22:00,
2013-08-16 17:27:00,65.8,62.6,29.80,SSW,210,8.5,-999.0,89,0.00,,,0.00,188.83,,2013-08-17 00:27:00,
2013-08-16 17:32:00,65.6,62.1,29.79,SW,233,14.3,-999.0,88,0.00,,,0.00,231.32,,2013-08-17 00:32:00,
2013-08-16 17:37:00,65.4,61.9,29.80,SSE,163,10.4,-999.0,88,0.00,,,0.00,320.94,,2013-08-17 00:37:00,
2013-08-16 17:42:00,65.7,62.4,29.81,SSW,206,9.7,-999.0,89,0.00,,,0.00,116.30,,2013-08-17 00:42:00,
2013-08-16 17:47:00,65.2,62.0,29.80,SSW,192,14.0,-999.0,89,0.00,,,0.00,132.60,,2013-08-17 00:47:00,
2013-08-16 17:52:00,65.3,62.3,29.80,WSW,243,12.9,-999.0,90,0.00,,,0.00,137.73,,2013-08-17 00:52:00,
2013-08-16 17:57:00,65.6,62.7,29.80,WSW,240,8.8,-999.0,90,0.00,,,0.00,115.57,,2013-08-17 00:57:00,
2013-08-16 18:02:00,65.7,62.5,29.80,SW,236,3.4,-999.0,90,0.00,,,0.00,130.40,,2013-08-17 01:02:00,
2013-08-16 18:07:00,65.9,62.5,29.80,SW,227,8.8,-999.0,89,0.00,,,0.00,152.32,,2013-08-17 01:07:00,
2013-08-16 18:12:00,66.3,62.6,29.80,SW,227,4.7,-999.0,88,0.00,,,0.00,149.51,,2013-08-17 01:12:00,
2013-08-16 18:17:00,65.2,60.9,29.80,SSE,149,9.8,-999.0,86,0.00,,,0.00,100.55,,2013-08-17 01:17:00,
2013-08-16 18:22:00,65.1,61.4,29.80,SW,219,6.1,-999.0,88,0.00,,,0.00,97.68,,2013-08-17 01:22:00,
2013-08-16 18:27:00,64.6,61.1,29.80,WSW,256,10.9,-999.0,89,0.00,,,0.00,77.90,,2013-08-17 01:27:00,
2013-08-16 18:32:00,64.1,60.9,29.80,SW,225,11.6,-999.0,89,0.00,,,0.00,58.36,,2013-08-17 01:32:00,
2013-08-16 18:37:00,64.4,61.6,29.80,SW,225,6.1,-999.0,91,0.00,,,0.00,59.52,,2013-08-17 01:37:00,
2013-08-16 18:42:00,63.9,61.3,29.80,West,259,5.8,-999.0,91,0.00,,,0.00,52.01,,2013-08-17 01:42:00,
2013-08-16 18:47:00,63.9,61.7,29.80,SW,231,4.7,-999.0,93,0.00,,,0.00,41.51,,2013-08-17 01:47:00,
2013-08-16 18:52:00,63.3,61.0,29.80,SW,220,9.2,-999.0,92,0.00,,,0.00,35.90,,2013-08-17 01:52:00,
2013-08-16 18:57:00,63.2,61.1,29.80,SSW,207,10.0,-999.0,93,0.00,,,0.00,42.25,,2013-08-17 01:57:00,
2013-08-16 19:02:00,63.0,61.4,29.80,SW,220,12.8,-999.0,94,0.00,,,0.00,33.46,,2013-08-17 02:02:00,
2013-08-16 19:07:00,62.8,61.5,29.80,SSW,206,10.9,-999.0,95,0.00,,,0.00,33.21,,2013-08-17 02:07:00,
2013-08-16 19:12:00,62.9,61.7,29.80,SW,230,13.1,-999.0,96,0.00,,,0.00,33.46,,2013-08-17 02:12:00,
2013-08-16 19:17:00,63.2,62.1,29.80,West,273,8.8,-999.0,96,0.00,,,0.00,31.99,,2013-08-17 02:17:00,
2013-08-16 19:22:00,62.8,61.7,29.79,SSW,201,12.3,-999.0,96,0.00,,,0.00,31.32,,2013-08-17 02:22:00,
2013-08-16 19:27:00,62.7,61.7,29.79,SSW,212,11.2,-999.0,96,0.00,,,0.00,16.61,,2013-08-17 02:27:00,
2013-08-16 19:32:00,62.6,61.8,29.80,SW,224,10.0,-999.0,97,0.00,,,0.00,17.34,,2013-08-17 02:32:00,
2013-08-16 19:37:00,62.6,62.0,29.80,WSW,242,13.1,-999.0,98,0.00,,,0.00,11.17,,2013-08-17 02:37:00,
2013-08-16 19:42:00,62.5,61.9,29.79,WSW,237,11.9,-999.0,98,0.00,,,0.00,12.70,,2013-08-17 02:42:00,
2013-08-16 19:47:00,62.6,62.2,29.80,SW,217,10.7,-999.0,99,0.00,,,0.00,12.21,,2013-08-17 02:47:00,
2013-08-16 19:52:00,62.6,62.2,29.79,SSW,211,12.3,-999.0,98,0.00,,,0.00,9.83,,2013-08-17 02:52:00,
2013-08-16 19:57:00,62.8,62.4,29.80,WSW,249,7.3,-999.0,99,0.00,,,0.00,7.39,,2013-08-17 02:57:00,
2013-08-16 20:02:00,62.9,62.5,29.80,SSW,205,8.7,-999.0,99,0.00,,,0.00,4.95,,2013-08-17 03:02:00,
2013-08-16 20:07:00,62.7,62.3,29.79,WSW,242,4.0,-999.0,99,0.00,,,0.00,2.99,,2013-08-17 03:07:00,
2013-08-16 20:12:00,62.7,62.3,29.79,WSW,255,5.6,-999.0,99,0.00,,,0.00,1.95,,2013-08-17 03:12:00,
2013-08-16 20:17:00,62.6,62.3,29.80,SW,222,8.3,-999.0,99,0.00,,,0.00,0.00,,2013-08-17 03:17:00,
2013-08-16 20:22:00,62.8,62.5,29.80,West,259,5.9,-999.0,99,0.00,,,0.00,0.61,,2013-08-17 03:22:00,
2013-08-16 20:27:00,62.7,62.4,29.80,SSW,202,9.5,-999.0,99,0.00,,,0.00,0.73,,2013-08-17 03:27:00,
2013-08-16 20:32:00,62.8,62.4,29.80,SSE,161,5.8,-999.0,99,0.00,,,0.00,0.73,,2013-08-17 03:32:00,
2013-08-16 20:37:00,62.7,62.2,29.80,WSW,246,5.8,-999.0,99,0.00,,,0.00,0.73,,2013-08-17 03:37:00,
2013-08-16 20:42:00,62.6,62.2,29.81,SW,234,10.0,-999.0,99,0.00,,,0.00,0.00,,2013-08-17 03:42:00,
2013-08-16 20:47:00,62.5,62.1,29.81,WSW,243,8.5,-999.0,98,0.00,,,0.00,0.00,,2013-08-17 03:47:00,
2013-08-16 20:52:00,62.5,62.1,29.80,SW,236,9.8,-999.0,99,0.00,,,0.00,0.61,,2013-08-17 03:52:00,
2013-08-16 20:57:00,62.3,61.8,29.81,SW,228,6.1,-999.0,98,0.00,,,0.00,0.73,,2013-08-17 03:57:00,
2013-08-16 21:02:00,62.0,61.7,29.81,WSW,255,13.4,-999.0,99,0.00,,,0.00,0.73,,2013-08-17 04:02:00,
2013-08-16 21:07:00,61.9,61.8,29.81,SSW,196,5.8,-999.0,99,0.00,,,0.00,0.98,,2013-08-17 04:07:00,
2013-08-16 21:12:00,61.9,61.9,29.81,West,259,4.7,-999.0,100,0.00,,,0.00,0.00,,2013-08-17 04:12:00,
2013-08-16 21:17:00,61.9,61.9,29.82,SW,217,11.9,-999.0,100,0.00,,,0.00,0.06,,2013-08-17 04:17:00,
2013-08-16 21:22:00,61.8,61.8,29.82,South,182,10.0,-999.0,100,0.00,,,0.00,0.00,,2013-08-17 04:22:00,
2013-08-16 21:27:00,61.7,61.7,29.82,SW,225,8.7,-999.0,100,0.00,,,0.00,1.71,,2013-08-17 04:27:00,
2013-08-16 21:32:00,61.7,61.7,29.81,SSW,198,9.0,-999.0,100,0.00,,,0.00,0.49,,2013-08-17 04:32:00,
2013-08-16 21:37:00,61.7,61.7,29.81,SSW,203,9.8,-999.0,100,0.00,,,0.00,0.37,,2013-08-17 04:37:00,
2013-08-16 21:42:00,61.6,61.6,29.81,South,177,10.4,-999.0,100,0.00,,,0.00,0.00,,2013-08-17 04:42:00,
2013-08-16 21:47:00,61.6,61.6,29.81,SSW,194,8.8,-999.0,100,0.00,,,0.00,1.22,,2013-08-17 04:47:00,
2013-08-16 21:52:00,61.6,61.6,29.81,West,266,11.6,-999.0,100,0.00,,,0.00,0.85,,2013-08-17 04:52:00,
2013-08-16 21:57:00,61.5,61.5,29.82,West,268,11.1,-999.0,100,0.00,,,0.00,0.00,,2013-08-17 04:57:00,
2013-08-16 22:02:00,61.4,61.4,29.82,WSW,237,10.0,-999.0,100,0.00,,,0.00,1.22,,2013-08-17 05:02:00,
2013-08-16 22:07:00,61.3,61.3,29.81,SSW,209,13.4,-999.0,100,0.00,,,0.00,0.06,,2013-08-17 05:07:00,
2013-08-16 22:12:00,61.3,61.3,29.81,SSE,160,8.1,-999.0,100,0.00,,,0.00,0.00,,2013-08-17 05:12:00,
2013-08-16 22:17:00,61.2,61.2,29.81,SSW,210,11.9,-999.0,100,0.00,,,0.00,0.00,,2013-08-17 05:17:00,
2013-08-16 22:22:00,61.2,61.2,29.82,SSW,206,11.4,-999.0,100,0.00,,,0.00,0.00,,2013-08-17 05:22:00,
2013-08-16 22:27:00,61.3,61.3,29.81,WSW,247,8.8,-999.0,100,0.00,,,0.00,0.00,,2013-08-17 05:27:00,
2013-08-16 22:32:00,61.3,61.3,29.81,SW,224,9.2,-999.0,100,0.00,,,0.00,0.31,,2013-08-17 05:32:00,
2013-08-16 22:37:00,61.4,61.4,29.81,South,174,14.5,-999.0,100,0.00,,,0.00,0.00,,2013-08-17 05:37:00,
2013-08-16 22:42:00,61.5,61.5,29.81,SW,223,4.5,-999.0,100,0.00,,,0.00,0.00,,2013-08-17 05:42:00,
2013-08-16 22:47:00,61.6,61.6,29.82,WSW,237,8.3,-999.0,100,0.00,,,0.00,0.00,,2013-08-17 05:47:00,
2013-08-16 22:52:00,61.5,61.5,29.82,SSW,213,8.0,-999.0,100,0.00,,,0.00,0.00,,2013-08-17 05:52:00,
2013-08-16 22:57:00,61.5,61.5,29.82,SW,228,8.7,-999.0,100,0.00,,,0.00,0.00,,2013-08-17 05:57:00,
2013-08-16 23:02:00,61.6,61.6,29.81,SW,220,9.5,-999.0,100,0.00,,,0.00,0.43,,2013-08-17 06:02:00,
2013-08-16 23:07:00,61.6,61.6,29.82,SW,235,10.9,-999.0,100,0.00,,,0.00,0.73,,2013-08-17 06:07:00,
2013-08-16 23:12:00,61.6,61.6,29.82,SSE,162,7.3,-999.0,100,0.00,,,0.00,0.00,,2013-08-17 06:12:00,
2013-08-16 23:17:00,61.7,61.7,29.82,South,182,8.5,-999.0,100,0.00,,,0.00,0.18,,2013-08-17 06:17:00,
2013-08-16 23:22:00,61.8,61.8,29.81,SSE,152,6.6,-999.0,100,0.00,,,0.00,0.00,,2013-08-17 06:22:00,
2013-08-16 23:27:00,61.9,61.9,29.82,West,273,3.9,-999.0,100,0.00,,,0.00,0.06,,2013-08-17 06:27:00,
2013-08-16 23:32:00,61.8,61.8,29.83,South,186,1.0,-999.0,100,0.00,,,0.00,0.73,,2013-08-17 06:32:00,
2013-08-16 23:37:00,61.9,61.9,29.83,SW,227,4.2,-999.0,100,0.00,,,0.00,0.67,,2013-08-17 06:37:00,
2013-08-16 23:42:00,62.0,62.0,29.82,SSW,193,5.9,-999.0,100,0.00,,,0.00,0.00,,2013-08-17 06:42:00,
2013-08-16 23:47:00,62.1,62.1,29.83,SSW,196,4.9,-999.0,100,0.00,,,0.00,0.49,,2013-08-17 06:47:00,
2013-08-16 23:52:00,62.2,62.0,29.82,South,170,1.6,-999.0,100,0.00,,,0.00,0.00,,2013-08-17 06:52:00,
2013-08-16 23:57:00,62.2,62.0,29.82,South,181,0.0,-999.0,99,0.00,,,0.00,0.00,,2013-08-17 06:57:00,